KSWF/SWF METAR and TAF weather

Enter ICAO airport designator
Station Type Date Time Source
KSWF METAR 2021/10/20 07:45 UTC NOAA

KSWF 200745Z 28012KT 10SM SKC 13/07 A2995


Station Type Date Time Source
KSWF Decoded METAR 2021/10/20 07:45 UTC NOAA

Newburgh / Stewart, NY, United States (KSWF) 41-30N 074-06W
Oct 20, 2021 - 03:45 AM EDT / 2021.10.20 0745 UTC
Wind: from the W (280 degrees) at 14 MPH (12 KT):0
Visibility: 10 mile(s):0
Sky conditions: clear
Temperature: 55 F (13 C)
Dew Point: 44 F (7 C)
Relative Humidity: 66%
Pressure (altimeter): 29.95 in. Hg (1014 hPa)
ob: KSWF 200745Z 28012KT 10SM SKC 13/07 A2995
cycle: 8

Station Type Date Time Source
KSWF TAF 2021/10/20 06:30 UTC NOAA

TAF KSWF 200528Z 2006/2112 27010KT P6SM FEW250
FM201400 29013G20KT P6SM SKC
FM202100 26007KT P6SM SCT100
FM210000 26003KT P6SM SCT100
AMD NOT SKED

Example: see airport list